createdAt,value
2023-03-24T06:03:00.987Z,89.36
2023-03-24T06:05:37.857Z,89.86
2023-03-24T06:08:10.114Z,89.64
2023-03-24T06:10:46.855Z,89.12
2023-03-24T06:13:17.256Z,89.07
2023-03-24T06:15:54.999Z,88.85
2023-03-24T06:18:34.853Z,88.78
2023-03-24T06:21:04.954Z,88.44
2023-03-24T06:23:41.874Z,88.30
2023-03-24T06:26:21.023Z,87.99
2023-03-24T06:28:52.092Z,87.96
2023-03-24T06:31:28.998Z,88.57
2023-03-24T06:34:05.511Z,87.78
2023-03-24T06:36:42.920Z,87.93
2023-03-24T06:39:13.491Z,87.38
2023-03-24T06:41:49.907Z,87.72
2023-03-24T06:44:27.024Z,87.11
2023-03-24T06:46:57.711Z,87.26
2023-03-24T06:49:37.910Z,86.38
2023-03-24T06:52:08.410Z,85.98
2023-03-24T06:54:44.927Z,86.10
2023-03-24T06:57:15.382Z,85.73
2023-03-24T06:59:53.959Z,85.63
2023-03-24T07:02:24.463Z,85.80
2023-03-24T07:05:03.946Z,85.64
2023-03-24T07:10:15.934Z,85.36
2023-03-24T07:12:53.001Z,84.67
2023-03-24T07:15:23.189Z,85.45
2023-03-24T07:18:00.001Z,85.01
2023-03-24T07:20:38.950Z,84.21
2023-03-24T07:23:09.572Z,83.85
2023-03-24T07:25:45.940Z,84.28
2023-03-24T07:28:22.982Z,83.69
2023-03-24T07:31:08.085Z,83.43
2023-03-24T07:33:50.006Z,83.12
2023-03-24T07:37:01.729Z,82.55
2023-03-24T07:39:51.500Z,82.47
2023-03-24T07:42:36.517Z,81.51
2023-03-24T07:45:49.282Z,79.75
2023-03-24T07:48:34.199Z,79.87
2023-03-24T07:51:16.131Z,80.22
2023-03-24T07:54:11.041Z,78.90
2023-03-24T07:56:56.537Z,77.43
2023-03-24T08:02:52.409Z,75.26
2023-03-24T08:05:32.492Z,73.67
2023-03-24T08:08:18.177Z,73.76
2023-03-24T08:11:04.282Z,71.74
2023-03-24T08:13:52.182Z,72.09
2023-03-24T08:16:32.357Z,73.66
2023-03-24T08:19:02.886Z,72.46
2023-03-24T08:21:40.019Z,72.54
2023-03-24T08:24:17.058Z,70.76
2023-03-24T08:26:49.848Z,70.17
2023-03-24T08:29:26.145Z,69.96
2023-03-24T08:32:03.055Z,68.59
2023-03-24T08:34:33.336Z,68.07
2023-03-24T08:37:10.065Z,68.48
2023-03-24T08:39:47.123Z,68.07
2023-03-24T08:42:20.098Z,66.66
2023-03-24T08:44:57.127Z,65.27
2023-03-24T08:47:34.166Z,65.01
2023-03-24T08:50:05.279Z,63.59
2023-03-24T08:52:42.055Z,63.19
2023-03-24T08:55:20.090Z,62.26
2023-03-24T08:57:53.758Z,60.09
2023-03-24T09:00:32.115Z,58.72
2023-03-24T09:03:02.357Z,60.07
2023-03-24T09:05:54.604Z,60.42
2023-03-24T09:08:32.142Z,58.78
2023-03-24T09:11:02.470Z,59.72
2023-03-24T09:13:42.089Z,59.19
2023-03-24T09:16:19.124Z,58.39
2023-03-24T09:18:49.516Z,58.89
2023-03-24T09:21:27.093Z,59.03
2023-03-24T09:24:04.152Z,58.02
2023-03-24T09:26:34.482Z,58.48
2023-03-24T09:29:14.125Z,57.86
2023-03-24T09:31:51.214Z,58.25
2023-03-24T09:34:21.544Z,58.50
2023-03-24T09:36:59.141Z,57.75
2023-03-24T09:39:36.152Z,57.81
2023-03-24T09:42:09.243Z,55.58
2023-03-24T09:44:53.154Z,54.63
2023-03-24T09:47:33.612Z,55.02
2023-03-24T09:50:16.229Z,53.33
2023-03-24T09:52:52.147Z,54.28
2023-03-24T09:55:34.178Z,53.93
2023-03-24T09:58:16.223Z,54.03
2023-03-24T10:00:49.832Z,54.42
2023-03-24T10:03:31.284Z,54.38
2023-03-24T10:06:09.160Z,54.30
2023-03-24T10:08:50.159Z,54.89
2023-03-24T10:11:32.329Z,54.28
2023-03-24T10:14:28.185Z,54.41
2023-03-24T10:17:15.198Z,51.69
2023-03-24T10:19:59.954Z,50.26
2023-03-24T10:22:45.185Z,51.08
2023-03-24T10:25:31.253Z,49.86
2023-03-24T10:28:06.142Z,50.16
2023-03-24T10:30:48.138Z,49.66
2023-03-24T10:33:28.306Z,49.13
2023-03-24T10:36:07.118Z,49.28
2023-03-24T10:38:45.448Z,51.05
2023-03-24T10:41:26.238Z,51.53
2023-03-24T10:44:01.033Z,50.93
2023-03-24T10:46:41.219Z,51.35
2023-03-24T10:49:20.148Z,49.44
2023-03-24T10:51:59.272Z,50.30
2023-03-24T10:54:38.211Z,50.78
2023-03-24T10:57:20.780Z,51.20
2023-03-24T11:00:04.272Z,51.44
2023-03-24T11:02:44.388Z,51.81
2023-03-24T11:05:29.864Z,53.61
2023-03-24T11:08:30.336Z,54.40
2023-03-24T11:14:40.360Z,54.01
2023-03-24T11:17:24.399Z,55.63
2023-03-24T11:19:56.963Z,55.39
2023-03-24T11:22:42.367Z,55.77
2023-03-24T11:25:26.736Z,54.59
2023-03-24T11:28:06.274Z,54.46
2023-03-24T11:30:56.287Z,55.56
2023-03-24T11:33:40.299Z,55.23
2023-03-24T11:36:49.151Z,55.41
2023-03-24T11:39:34.568Z,55.25
2023-03-24T11:42:20.923Z,55.33
2023-03-24T11:45:02.334Z,54.40
2023-03-24T11:47:40.656Z,52.66
2023-03-24T11:50:33.447Z,54.23
2023-03-24T11:53:11.418Z,54.38
2023-03-24T11:55:57.340Z,54.92
2023-03-24T11:58:37.421Z,55.26
2023-03-24T12:01:23.376Z,54.93
2023-03-24T12:04:17.378Z,55.31
2023-03-24T12:07:07.489Z,55.64
2023-03-24T12:09:52.334Z,54.75
2023-03-24T12:12:39.413Z,54.84
2023-03-24T12:15:48.590Z,54.55
2023-03-24T12:19:00.339Z,54.65
2023-03-24T12:21:53.570Z,53.61
2023-03-24T12:24:44.429Z,52.17
2023-03-24T12:27:38.478Z,53.40
2023-03-24T12:30:21.525Z,52.84
2023-03-24T12:33:09.440Z,52.78
2023-03-24T12:36:15.554Z,52.36
2023-03-24T12:39:08.940Z,53.06
2023-03-24T12:42:10.374Z,52.74
2023-03-24T12:45:06.513Z,54.05
2023-03-24T12:48:04.435Z,53.39
2023-03-24T12:50:50.251Z,52.72
2023-03-24T12:54:00.444Z,53.44
2023-03-24T12:56:50.443Z,52.97
2023-03-24T12:59:51.130Z,54.25
2023-03-24T13:02:37.453Z,53.30
2023-03-24T13:05:21.488Z,53.09
2023-03-24T13:07:58.190Z,54.28
2023-03-24T13:10:38.464Z,52.88
2023-03-24T13:13:18.992Z,51.26
2023-03-24T13:16:02.455Z,51.96
2023-03-24T13:18:44.424Z,52.03
2023-03-24T13:21:16.889Z,51.08
2023-03-24T13:24:08.742Z,51.93
2023-03-24T13:26:49.528Z,52.74
2023-03-24T13:30:08.777Z,53.31
2023-03-24T13:32:53.513Z,53.38
2023-03-24T13:35:40.528Z,53.82
2023-03-24T13:38:28.525Z,52.66
2023-03-24T13:40:59.624Z,52.66
2023-03-24T13:43:41.471Z,53.12
2023-03-24T13:46:16.633Z,53.89
2023-03-24T13:49:01.468Z,54.56
2023-03-24T13:51:35.304Z,55.03
2023-03-24T13:54:20.511Z,54.13
2023-03-24T13:57:04.260Z,53.78
2023-03-24T13:59:48.624Z,54.40
